Randy Eckstein — WDC2803 — position and weather

sailwx.info

Track history (hours):
 
Tides and Currents Weather Stations Pressure Air Temp Water Temp Dewpoint Dewpoint Depression Visibility Wind Speed Wind Dir Waves Ship Positions

Randy Eckstein

Owner: Marquette Transportation Company Gulf-Inland, LLC, Jefferson, LA. More information available from US FCC via Universal Licensing System and Coast Guard Vessel Documentation Center.

Last reported at 2018-Jun-15 09:46 UTC. Time now 2018-Jun-22 18:45 UTC.
Position N 31°41' W 091°24'.

Length 204 m; draft 2.9 m.

Type: Towing. MMSI: 366997920.

Date/timePositionNaut miles runAvg speedWind from/ knotsBaromVisibWave heightAir tempDewpointWater temp
2018-Jun-15 09:46N 31°41' W 091°24'3 7.3
2018-Jun-15 09:24N 31°44' W 091°23'5 8.0
2018-Jun-15 08:47N 31°48' W 091°22'3 8.4
2018-Jun-15 08:29N 31°51' W 091°21'8 7.7
2018-Jun-15 07:29N 31°54' W 091°12'4 7.7
2018-Jun-15 07:00N 31°57' W 091°11'4 7.2
2018-Jun-15 06:25N 31°59' W 091°07'4 7.9
2018-Jun-15 05:55N 32°02' W 091°04'3 7.1
2018-Jun-15 05:30N 32°05' W 091°05'3 6.4
2018-Jun-15 05:00N 32°08' W 091°06'4 7.9
2018-Jun-15 04:30N 32°08' W 091°01'4 8.1
2018-Jun-15 04:00N 32°11' W 090°60'4 8.1
2018-Jun-15 03:30N 32°15' W 090°58'4 7.9
2018-Jun-15 03:00N 32°18' W 090°55'3 5.0
2018-Jun-15 02:30N 32°21' W 090°55'4 7.3
2018-Jun-15 02:00N 32°21' W 090°59'4 7.6
2018-Jun-15 01:30N 32°25' W 090°60'4 8.6
2018-Jun-15 01:00N 32°27' W 091°04'4 8.1
2018-Jun-15 00:30N 32°30' W 091°07'4 8.5
2018-Jun-15 00:00N 32°34' W 091°06'  
Track history (hours):
 
Tides and Currents Weather Stations Pressure Air Temp Water Temp Dewpoint Dewpoint Depression Visibility Wind Speed Wind Dir Waves Ship Positions

Randy Eckstein

Owner: Marquette Transportation Company Gulf-Inland, LLC, Jefferson, LA. More information available from US FCC via Universal Licensing System and Coast Guard Vessel Documentation Center.

Last reported at 2018-Jun-15 09:46 UTC. Time now 2018-Jun-22 18:45 UTC.
Position N 31°41' W 091°24'.

Length 204 m; draft 2.9 m.

Type: Towing. MMSI: 366997920.

Date/timePositionNaut miles runAvg speedWind from/ knotsBaromVisibWave heightAir tempDewpointWater temp
2018-Jun-15 09:46N 31°41' W 091°24'3 7.3
2018-Jun-15 09:24N 31°44' W 091°23'5 8.0
2018-Jun-15 08:47N 31°48' W 091°22'3 8.4
2018-Jun-15 08:29N 31°51' W 091°21'8 7.7
2018-Jun-15 07:29N 31°54' W 091°12'4 7.7
2018-Jun-15 07:00N 31°57' W 091°11'4 7.2
2018-Jun-15 06:25N 31°59' W 091°07'4 7.9
2018-Jun-15 05:55N 32°02' W 091°04'3 7.1
2018-Jun-15 05:30N 32°05' W 091°05'3 6.4
2018-Jun-15 05:00N 32°08' W 091°06'4 7.9
2018-Jun-15 04:30N 32°08' W 091°01'4 8.1
2018-Jun-15 04:00N 32°11' W 090°60'4 8.1
2018-Jun-15 03:30N 32°15' W 090°58'4 7.9
2018-Jun-15 03:00N 32°18' W 090°55'3 5.0
2018-Jun-15 02:30N 32°21' W 090°55'4 7.3
2018-Jun-15 02:00N 32°21' W 090°59'4 7.6
2018-Jun-15 01:30N 32°25' W 090°60'4 8.6
2018-Jun-15 01:00N 32°27' W 091°04'4 8.1
2018-Jun-15 00:30N 32°30' W 091°07'4 8.5
2018-Jun-15 00:00N 32°34' W 091°06'  

Dump ship's entire track history